McCall, Idaho
Current Conditions -  °F | °C
As of 11:51 AM on Thursday 27 Nov 2014 (Local Time) from KMYL Reporting Station
Overcast Overcast  
Wind Chill: 39°   Ceiling: 8000
Heat Index: 45°   Visibility: 10mi
Dew Point: 31°   Wind: 14mph
Humidity: 58%   Direction: 170°S
Pressure: 30.11"   Gusts: NA
Location:  44.91°N, 116.1°W
Report Text: KMYL 271851Z AUTO 17012KT 10SM FEW060 OVC080 07/M01 A3011 RMK AO2 SLP203 T00721006
Loading
Personal Weather Stations






























Interactive Weather Map New forecast layout! Learn more

10-Day Weather Forecast

Advertisements
Track Severe Weather on mobile